sensor_id;sensor_type;location;lat;lon;timestamp;P1;durP1;ratioP1;P2;durP2;ratioP2
57575;SDS011;43412;-33.800;150.804;2022-07-23T00:00:24;2.85;;;0.40;;
57575;SDS011;43412;-33.800;150.804;2022-07-23T00:02:51;0.60;;;0.30;;
57575;SDS011;43412;-33.800;150.804;2022-07-23T00:05:19;1.02;;;0.28;;
57575;SDS011;43412;-33.800;150.804;2022-07-23T00:07:46;2.05;;;0.40;;
57575;SDS011;43412;-33.800;150.804;2022-07-23T00:10:14;0.88;;;0.30;;
57575;SDS011;43412;-33.800;150.804;2022-07-23T00:12:42;2.72;;;0.40;;
57575;SDS011;43412;-33.800;150.804;2022-07-23T00:15:09;4.85;;;0.40;;
57575;SDS011;43412;-33.800;150.804;2022-07-23T00:17:37;2.55;;;0.50;;
57575;SDS011;43412;-33.800;150.804;2022-07-23T00:20:04;2.63;;;0.52;;
57575;SDS011;43412;-33.800;150.804;2022-07-23T00:22:32;3.35;;;0.40;;
57575;SDS011;43412;-33.800;150.804;2022-07-23T00:24:59;4.60;;;1.23;;
57575;SDS011;43412;-33.800;150.804;2022-07-23T00:27:27;2.00;;;0.70;;
57575;SDS011;43412;-33.800;150.804;2022-07-23T00:29:54;0.63;;;0.40;;
57575;SDS011;43412;-33.800;150.804;2022-07-23T00:32:22;1.63;;;0.40;;
57575;SDS011;43412;-33.800;150.804;2022-07-23T00:34:49;4.40;;;0.65;;
57575;SDS011;43412;-33.800;150.804;2022-07-23T00:37:17;4.35;;;1.15;;
57575;SDS011;43412;-33.800;150.804;2022-07-23T00:39:44;1.05;;;0.47;;
57575;SDS011;43412;-33.800;150.804;2022-07-23T00:42:11;2.17;;;0.47;;
57575;SDS011;43412;-33.800;150.804;2022-07-23T00:44:39;0.63;;;0.20;;
57575;SDS011;43412;-33.800;150.804;2022-07-23T00:47:06;2.85;;;0.40;;
57575;SDS011;43412;-33.800;150.804;2022-07-23T00:49:34;1.45;;;0.30;;
57575;SDS011;43412;-33.800;150.804;2022-07-23T00:52:02;2.70;;;0.20;;
57575;SDS011;43412;-33.800;150.804;2022-07-23T00:54:31;2.40;;;0.63;;
57575;SDS011;43412;-33.800;150.804;2022-07-23T00:56:59;2.25;;;0.30;;
57575;SDS011;43412;-33.800;150.804;2022-07-23T00:59:26;2.20;;;0.90;;
57575;SDS011;43412;-33.800;150.804;2022-07-23T01:01:54;4.30;;;0.50;;
57575;SDS011;43412;-33.800;150.804;2022-07-23T01:04:21;6.00;;;0.55;;
57575;SDS011;43412;-33.800;150.804;2022-07-23T01:06:48;1.08;;;0.30;;
57575;SDS011;43412;-33.800;150.804;2022-07-23T01:09:16;1.73;;;0.68;;
57575;SDS011;43412;-33.800;150.804;2022-07-23T01:11:44;1.75;;;0.68;;
57575;SDS011;43412;-33.800;150.804;2022-07-23T01:14:16;1.27;;;0.40;;
57575;SDS011;43412;-33.800;150.804;2022-07-23T01:16:45;3.72;;;0.43;;
57575;SDS011;43412;-33.800;150.804;2022-07-23T01:19:14;1.23;;;0.40;;
57575;SDS011;43412;-33.800;150.804;2022-07-23T01:21:44;0.50;;;0.35;;
57575;SDS011;43412;-33.800;150.804;2022-07-23T01:24:16;1.95;;;0.60;;
57575;SDS011;43412;-33.800;150.804;2022-07-23T01:26:47;0.65;;;0.65;;
57575;SDS011;43412;-33.800;150.804;2022-07-23T01:29:15;1.92;;;0.25;;
57575;SDS011;43412;-33.800;150.804;2022-07-23T01:31:44;1.98;;;0.28;;
57575;SDS011;43412;-33.800;150.804;2022-07-23T01:34:11;1.30;;;0.22;;
57575;SDS011;43412;-33.800;150.804;2022-07-23T01:36:39;2.38;;;0.60;;
57575;SDS011;43412;-33.800;150.804;2022-07-23T01:39:07;2.90;;;0.60;;
57575;SDS011;43412;-33.800;150.804;2022-07-23T01:41:34;2.95;;;0.25;;
57575;SDS011;43412;-33.800;150.804;2022-07-23T01:44:01;0.50;;;0.50;;
57575;SDS011;43412;-33.800;150.804;2022-07-23T01:46:29;3.70;;;0.47;;
57575;SDS011;43412;-33.800;150.804;2022-07-23T01:48:56;0.98;;;0.40;;
57575;SDS011;43412;-33.800;150.804;2022-07-23T01:51:24;0.70;;;0.32;;
57575;SDS011;43412;-33.800;150.804;2022-07-23T01:53:51;3.67;;;0.77;;
57575;SDS011;43412;-33.800;150.804;2022-07-23T01:56:19;1.50;;;0.32;;
57575;SDS011;43412;-33.800;150.804;2022-07-23T01:58:47;2.30;;;0.40;;
57575;SDS011;43412;-33.800;150.804;2022-07-23T02:01:15;1.20;;;0.65;;
57575;SDS011;43412;-33.800;150.804;2022-07-23T02:03:43;1.70;;;0.32;;
57575;SDS011;43412;-33.800;150.804;2022-07-23T02:06:11;2.15;;;0.43;;
57575;SDS011;43412;-33.800;150.804;2022-07-23T02:08:38;1.08;;;0.30;;
57575;SDS011;43412;-33.800;150.804;2022-07-23T02:11:06;2.65;;;0.60;;
57575;SDS011;43412;-33.800;150.804;2022-07-23T02:13:33;1.40;;;0.38;;
57575;SDS011;43412;-33.800;150.804;2022-07-23T02:16:01;0.57;;;0.30;;
57575;SDS011;43412;-33.800;150.804;2022-07-23T02:18:29;1.25;;;0.20;;
57575;SDS011;43412;-33.800;150.804;2022-07-23T02:20:56;0.10;;;0.10;;
57575;SDS011;43412;-33.800;150.804;2022-07-23T02:23:23;2.28;;;0.20;;
57575;SDS011;43412;-33.800;150.804;2022-07-23T02:25:51;2.17;;;0.95;;
57575;SDS011;43412;-33.800;150.804;2022-07-23T02:28:18;3.25;;;0.52;;
57575;SDS011;43412;-33.800;150.804;2022-07-23T02:30:46;1.65;;;0.35;;
57575;SDS011;43412;-33.800;150.804;2022-07-23T02:33:13;2.10;;;0.38;;
57575;SDS011;43412;-33.800;150.804;2022-07-23T02:35:40;2.08;;;0.20;;
57575;SDS011;43412;-33.800;150.804;2022-07-23T02:38:08;1.40;;;0.30;;
57575;SDS011;43412;-33.800;150.804;2022-07-23T02:40:35;0.63;;;0.20;;
57575;SDS011;43412;-33.800;150.804;2022-07-23T02:43:03;0.98;;;0.40;;
57575;SDS011;43412;-33.800;150.804;2022-07-23T02:45:30;5.60;;;1.85;;
57575;SDS011;43412;-33.800;150.804;2022-07-23T02:47:57;1.10;;;0.30;;
57575;SDS011;43412;-33.800;150.804;2022-07-23T02:50:25;0.40;;;0.25;;
57575;SDS011;43412;-33.800;150.804;2022-07-23T02:52:52;2.40;;;0.30;;
57575;SDS011;43412;-33.800;150.804;2022-07-23T02:55:20;1.33;;;0.55;;
57575;SDS011;43412;-33.800;150.804;2022-07-23T02:57:47;1.05;;;0.30;;
57575;SDS011;43412;-33.800;150.804;2022-07-23T03:00:14;0.47;;;0.22;;
57575;SDS011;43412;-33.800;150.804;2022-07-23T03:02:42;2.67;;;0.40;;
57575;SDS011;43412;-33.800;150.804;2022-07-23T03:05:09;1.35;;;0.30;;
57575;SDS011;43412;-33.800;150.804;2022-07-23T03:07:37;1.42;;;0.30;;
57575;SDS011;43412;-33.800;150.804;2022-07-23T03:10:04;2.58;;;0.47;;
57575;SDS011;43412;-33.800;150.804;2022-07-23T03:12:32;0.60;;;0.30;;
57575;SDS011;43412;-33.800;150.804;2022-07-23T03:15:00;3.00;;;0.90;;
57575;SDS011;43412;-33.800;150.804;2022-07-23T03:17:27;3.33;;;0.30;;
57575;SDS011;43412;-33.800;150.804;2022-07-23T03:19:55;2.67;;;0.30;;
57575;SDS011;43412;-33.800;150.804;2022-07-23T03:22:22;0.38;;;0.28;;
57575;SDS011;43412;-33.800;150.804;2022-07-23T03:24:49;1.30;;;0.40;;
57575;SDS011;43412;-33.800;150.804;2022-07-23T03:27:23;2.67;;;0.45;;
57575;SDS011;43412;-33.800;150.804;2022-07-23T03:29:55;0.65;;;0.43;;
57575;SDS011;43412;-33.800;150.804;2022-07-23T03:32:23;0.85;;;0.40;;
57575;SDS011;43412;-33.800;150.804;2022-07-23T03:34:51;2.97;;;0.55;;
57575;SDS011;43412;-33.800;150.804;2022-07-23T03:37:19;1.60;;;0.20;;
57575;SDS011;43412;-33.800;150.804;2022-07-23T03:39:46;3.17;;;0.40;;
57575;SDS011;43412;-33.800;150.804;2022-07-23T03:42:14;0.60;;;0.25;;
57575;SDS011;43412;-33.800;150.804;2022-07-23T03:44:41;2.90;;;0.30;;
57575;SDS011;43412;-33.800;150.804;2022-07-23T03:47:09;2.50;;;0.25;;
57575;SDS011;43412;-33.800;150.804;2022-07-23T03:49:36;0.68;;;0.20;;
57575;SDS011;43412;-33.800;150.804;2022-07-23T03:52:04;1.65;;;0.20;;
57575;SDS011;43412;-33.800;150.804;2022-07-23T03:54:31;2.70;;;0.30;;
57575;SDS011;43412;-33.800;150.804;2022-07-23T03:56:59;2.05;;;0.50;;
57575;SDS011;43412;-33.800;150.804;2022-07-23T03:59:26;7.03;;;0.93;;
57575;SDS011;43412;-33.800;150.804;2022-07-23T04:01:53;0.65;;;0.20;;
57575;SDS011;43412;-33.800;150.804;2022-07-23T04:04:21;0.80;;;0.15;;
57575;SDS011;43412;-33.800;150.804;2022-07-23T04:06:48;1.05;;;0.32;;
57575;SDS011;43412;-33.800;150.804;2022-07-23T04:09:15;1.55;;;0.22;;
57575;SDS011;43412;-33.800;150.804;2022-07-23T04:11:43;4.22;;;0.50;;
57575;SDS011;43412;-33.800;150.804;2022-07-23T04:14:10;0.63;;;0.30;;
57575;SDS011;43412;-33.800;150.804;2022-07-23T04:16:38;1.20;;;0.30;;
57575;SDS011;43412;-33.800;150.804;2022-07-23T04:19:05;1.10;;;0.63;;
57575;SDS011;43412;-33.800;150.804;2022-07-23T04:21:32;1.88;;;0.40;;
57575;SDS011;43412;-33.800;150.804;2022-07-23T04:24:00;2.15;;;0.95;;
57575;SDS011;43412;-33.800;150.804;2022-07-23T04:26:27;0.25;;;0.10;;
57575;SDS011;43412;-33.800;150.804;2022-07-23T04:28:55;2.65;;;0.65;;
57575;SDS011;43412;-33.800;150.804;2022-07-23T04:31:25;0.60;;;0.20;;
57575;SDS011;43412;-33.800;150.804;2022-07-23T04:33:53;0.40;;;0.40;;
57575;SDS011;43412;-33.800;150.804;2022-07-23T04:36:20;0.20;;;0.20;;
57575;SDS011;43412;-33.800;150.804;2022-07-23T04:38:47;0.82;;;0.40;;
57575;SDS011;43412;-33.800;150.804;2022-07-23T04:41:15;1.73;;;0.60;;
57575;SDS011;43412;-33.800;150.804;2022-07-23T04:43:42;0.60;;;0.30;;
57575;SDS011;43412;-33.800;150.804;2022-07-23T04:46:10;3.10;;;2.72;;
57575;SDS011;43412;-33.800;150.804;2022-07-23T04:48:37;1.92;;;1.00;;
57575;SDS011;43412;-33.800;150.804;2022-07-23T04:51:05;4.07;;;0.70;;
57575;SDS011;43412;-33.800;150.804;2022-07-23T04:53:32;1.92;;;1.25;;
57575;SDS011;43412;-33.800;150.804;2022-07-23T04:56:00;3.17;;;0.70;;
57575;SDS011;43412;-33.800;150.804;2022-07-23T04:58:27;1.70;;;1.13;;
57575;SDS011;43412;-33.800;150.804;2022-07-23T05:00:55;0.82;;;0.45;;
57575;SDS011;43412;-33.800;150.804;2022-07-23T05:03:23;3.78;;;0.57;;
57575;SDS011;43412;-33.800;150.804;2022-07-23T05:05:51;1.15;;;0.45;;
57575;SDS011;43412;-33.800;150.804;2022-07-23T05:08:18;2.53;;;1.10;;
57575;SDS011;43412;-33.800;150.804;2022-07-23T05:10:46;1.95;;;1.35;;
57575;SDS011;43412;-33.800;150.804;2022-07-23T05:13:16;7.78;;;4.30;;
57575;SDS011;43412;-33.800;150.804;2022-07-23T05:15:44;17.02;;;10.70;;
57575;SDS011;43412;-33.800;150.804;2022-07-23T05:18:12;8.05;;;4.78;;
57575;SDS011;43412;-33.800;150.804;2022-07-23T05:20:39;4.85;;;3.08;;
57575;SDS011;43412;-33.800;150.804;2022-07-23T05:23:07;3.75;;;1.45;;
57575;SDS011;43412;-33.800;150.804;2022-07-23T05:25:36;1.00;;;0.47;;
57575;SDS011;43412;-33.800;150.804;2022-07-23T05:28:03;1.45;;;0.20;;
57575;SDS011;43412;-33.800;150.804;2022-07-23T05:30:31;0.30;;;0.10;;
57575;SDS011;43412;-33.800;150.804;2022-07-23T05:32:58;0.82;;;0.10;;
57575;SDS011;43412;-33.800;150.804;2022-07-23T05:35:25;0.13;;;0.10;;
57575;SDS011;43412;-33.800;150.804;2022-07-23T05:37:53;0.40;;;0.25;;
57575;SDS011;43412;-33.800;150.804;2022-07-23T05:40:21;0.43;;;0.30;;
57575;SDS011;43412;-33.800;150.804;2022-07-23T05:42:48;1.08;;;0.38;;
57575;SDS011;43412;-33.800;150.804;2022-07-23T05:45:15;2.20;;;0.50;;
57575;SDS011;43412;-33.800;150.804;2022-07-23T05:47:44;1.45;;;1.05;;
57575;SDS011;43412;-33.800;150.804;2022-07-23T05:50:15;0.38;;;0.30;;
57575;SDS011;43412;-33.800;150.804;2022-07-23T05:52:43;0.25;;;0.20;;
57575;SDS011;43412;-33.800;150.804;2022-07-23T05:55:10;0.35;;;0.20;;
57575;SDS011;43412;-33.800;150.804;2022-07-23T05:57:38;0.60;;;0.32;;
57575;SDS011;43412;-33.800;150.804;2022-07-23T06:00:07;2.45;;;1.15;;
57575;SDS011;43412;-33.800;150.804;2022-07-23T06:02:37;1.90;;;0.85;;
57575;SDS011;43412;-33.800;150.804;2022-07-23T06:05:05;0.60;;;0.30;;
57575;SDS011;43412;-33.800;150.804;2022-07-23T06:07:33;0.68;;;0.40;;
57575;SDS011;43412;-33.800;150.804;2022-07-23T06:10:01;0.82;;;0.30;;
57575;SDS011;43412;-33.800;150.804;2022-07-23T06:12:29;0.82;;;0.47;;
57575;SDS011;43412;-33.800;150.804;2022-07-23T06:14:57;0.90;;;0.38;;
57575;SDS011;43412;-33.800;150.804;2022-07-23T06:17:25;3.00;;;0.80;;
57575;SDS011;43412;-33.800;150.804;2022-07-23T06:19:53;1.20;;;0.73;;
57575;SDS011;43412;-33.800;150.804;2022-07-23T06:22:20;0.80;;;0.35;;
57575;SDS011;43412;-33.800;150.804;2022-07-23T06:24:49;1.10;;;0.40;;
57575;SDS011;43412;-33.800;150.804;2022-07-23T06:27:19;0.63;;;0.40;;
57575;SDS011;43412;-33.800;150.804;2022-07-23T06:29:47;0.65;;;0.60;;
57575;SDS011;43412;-33.800;150.804;2022-07-23T06:32:14;1.05;;;0.90;;
57575;SDS011;43412;-33.800;150.804;2022-07-23T06:34:42;4.60;;;3.58;;
57575;SDS011;43412;-33.800;150.804;2022-07-23T06:37:09;2.20;;;1.90;;
57575;SDS011;43412;-33.800;150.804;2022-07-23T06:39:36;2.38;;;2.17;;
57575;SDS011;43412;-33.800;150.804;2022-07-23T06:42:04;0.80;;;0.57;;
57575;SDS011;43412;-33.800;150.804;2022-07-23T06:44:31;0.20;;;0.20;;
57575;SDS011;43412;-33.800;150.804;2022-07-23T06:46:59;0.75;;;0.17;;
57575;SDS011;43412;-33.800;150.804;2022-07-23T06:49:26;1.30;;;0.20;;
57575;SDS011;43412;-33.800;150.804;2022-07-23T06:51:54;0.13;;;0.10;;
57575;SDS011;43412;-33.800;150.804;2022-07-23T06:54:21;0.28;;;0.17;;
57575;SDS011;43412;-33.800;150.804;2022-07-23T06:56:48;0.88;;;0.20;;
57575;SDS011;43412;-33.800;150.804;2022-07-23T06:59:16;3.55;;;0.45;;
57575;SDS011;43412;-33.800;150.804;2022-07-23T07:01:43;0.40;;;0.25;;
57575;SDS011;43412;-33.800;150.804;2022-07-23T07:04:11;1.60;;;0.93;;
57575;SDS011;43412;-33.800;150.804;2022-07-23T07:06:38;1.35;;;0.80;;
57575;SDS011;43412;-33.800;150.804;2022-07-23T07:09:06;0.98;;;0.35;;
57575;SDS011;43412;-33.800;150.804;2022-07-23T07:11:33;1.50;;;0.90;;
57575;SDS011;43412;-33.800;150.804;2022-07-23T07:14:01;3.67;;;2.55;;
57575;SDS011;43412;-33.800;150.804;2022-07-23T07:16:30;11.00;;;8.32;;
57575;SDS011;43412;-33.800;150.804;2022-07-23T07:18:57;21.15;;;15.32;;
57575;SDS011;43412;-33.800;150.804;2022-07-23T07:21:25;8.02;;;5.68;;
57575;SDS011;43412;-33.800;150.804;2022-07-23T07:23:52;7.75;;;7.05;;
57575;SDS011;43412;-33.800;150.804;2022-07-23T07:26:19;3.00;;;2.75;;
57575;SDS011;43412;-33.800;150.804;2022-07-23T07:28:47;1.40;;;1.02;;
57575;SDS011;43412;-33.800;150.804;2022-07-23T07:31:14;2.95;;;2.40;;
57575;SDS011;43412;-33.800;150.804;2022-07-23T07:33:42;1.60;;;1.10;;
57575;SDS011;43412;-33.800;150.804;2022-07-23T07:36:13;0.75;;;0.50;;
57575;SDS011;43412;-33.800;150.804;2022-07-23T07:38:40;2.28;;;0.40;;
57575;SDS011;43412;-33.800;150.804;2022-07-23T07:41:08;1.00;;;0.90;;
57575;SDS011;43412;-33.800;150.804;2022-07-23T07:43:36;3.50;;;0.80;;
57575;SDS011;43412;-33.800;150.804;2022-07-23T07:46:03;0.60;;;0.40;;
57575;SDS011;43412;-33.800;150.804;2022-07-23T07:48:36;0.80;;;0.60;;
57575;SDS011;43412;-33.800;150.804;2022-07-23T07:51:04;0.35;;;0.30;;
57575;SDS011;43412;-33.800;150.804;2022-07-23T07:53:31;1.08;;;0.65;;
57575;SDS011;43412;-33.800;150.804;2022-07-23T07:55:59;3.38;;;1.00;;
57575;SDS011;43412;-33.800;150.804;2022-07-23T07:58:26;2.40;;;0.80;;
57575;SDS011;43412;-33.800;150.804;2022-07-23T08:00:53;2.40;;;1.02;;
57575;SDS011;43412;-33.800;150.804;2022-07-23T08:03:21;3.30;;;1.08;;
57575;SDS011;43412;-33.800;150.804;2022-07-23T08:05:48;1.40;;;1.10;;
57575;SDS011;43412;-33.800;150.804;2022-07-23T08:08:15;1.45;;;0.85;;
57575;SDS011;43412;-33.800;150.804;2022-07-23T08:10:43;1.38;;;0.93;;
57575;SDS011;43412;-33.800;150.804;2022-07-23T08:13:14;1.83;;;1.10;;
57575;SDS011;43412;-33.800;150.804;2022-07-23T08:15:42;1.17;;;1.08;;
57575;SDS011;43412;-33.800;150.804;2022-07-23T08:18:10;2.33;;;0.77;;
57575;SDS011;43412;-33.800;150.804;2022-07-23T08:20:37;1.02;;;0.60;;
57575;SDS011;43412;-33.800;150.804;2022-07-23T08:23:06;1.02;;;0.60;;
57575;SDS011;43412;-33.800;150.804;2022-07-23T08:25:35;1.60;;;0.73;;
57575;SDS011;43412;-33.800;150.804;2022-07-23T08:28:08;2.03;;;0.68;;
57575;SDS011;43412;-33.800;150.804;2022-07-23T08:30:37;1.50;;;0.60;;
57575;SDS011;43412;-33.800;150.804;2022-07-23T08:33:07;1.23;;;0.50;;
57575;SDS011;43412;-33.800;150.804;2022-07-23T08:35:42;1.20;;;0.70;;
57575;SDS011;43412;-33.800;150.804;2022-07-23T08:38:16;3.40;;;1.25;;
57575;SDS011;43412;-33.800;150.804;2022-07-23T08:40:46;2.22;;;1.38;;
57575;SDS011;43412;-33.800;150.804;2022-07-23T08:43:21;4.97;;;2.58;;
57575;SDS011;43412;-33.800;150.804;2022-07-23T08:45:51;2.53;;;1.50;;
57575;SDS011;43412;-33.800;150.804;2022-07-23T08:48:25;1.67;;;1.00;;
57575;SDS011;43412;-33.800;150.804;2022-07-23T08:50:55;2.83;;;1.35;;
57575;SDS011;43412;-33.800;150.804;2022-07-23T08:53:24;1.55;;;1.10;;
57575;SDS011;43412;-33.800;150.804;2022-07-23T08:55:53;2.20;;;1.40;;
57575;SDS011;43412;-33.800;150.804;2022-07-23T08:58:27;4.47;;;1.98;;
57575;SDS011;43412;-33.800;150.804;2022-07-23T09:00:56;2.88;;;1.80;;
57575;SDS011;43412;-33.800;150.804;2022-07-23T09:03:28;4.05;;;2.85;;
57575;SDS011;43412;-33.800;150.804;2022-07-23T09:05:57;4.80;;;3.08;;
57575;SDS011;43412;-33.800;150.804;2022-07-23T09:08:39;2.35;;;1.50;;
57575;SDS011;43412;-33.800;150.804;2022-07-23T09:11:09;2.63;;;1.77;;
57575;SDS011;43412;-33.800;150.804;2022-07-23T09:13:41;2.50;;;1.85;;
57575;SDS011;43412;-33.800;150.804;2022-07-23T09:16:13;2.58;;;1.88;;
57575;SDS011;43412;-33.800;150.804;2022-07-23T09:18:47;2.35;;;1.65;;
57575;SDS011;43412;-33.800;150.804;2022-07-23T09:21:35;2.15;;;1.40;;
57575;SDS011;43412;-33.800;150.804;2022-07-23T09:26:41;2.45;;;1.83;;
57575;SDS011;43412;-33.800;150.804;2022-07-23T09:36:47;3.20;;;1.58;;
57575;SDS011;43412;-33.800;150.804;2022-07-23T09:39:21;1.92;;;1.02;;
57575;SDS011;43412;-33.800;150.804;2022-07-23T09:41:54;1.80;;;0.93;;
57575;SDS011;43412;-33.800;150.804;2022-07-23T09:44:22;1.63;;;1.05;;
57575;SDS011;43412;-33.800;150.804;2022-07-23T09:46:50;2.58;;;1.73;;
57575;SDS011;43412;-33.800;150.804;2022-07-23T09:49:23;4.22;;;1.48;;
57575;SDS011;43412;-33.800;150.804;2022-07-23T09:51:54;1.38;;;1.20;;
57575;SDS011;43412;-33.800;150.804;2022-07-23T09:54:28;2.10;;;1.58;;
57575;SDS011;43412;-33.800;150.804;2022-07-23T09:56:57;2.80;;;1.40;;
57575;SDS011;43412;-33.800;150.804;2022-07-23T09:59:26;3.25;;;1.20;;
57575;SDS011;43412;-33.800;150.804;2022-07-23T10:01:57;1.67;;;1.30;;
57575;SDS011;43412;-33.800;150.804;2022-07-23T10:04:26;2.33;;;1.70;;
57575;SDS011;43412;-33.800;150.804;2022-07-23T10:07:03;3.95;;;2.67;;
57575;SDS011;43412;-33.800;150.804;2022-07-23T10:09:36;7.60;;;4.50;;
57575;SDS011;43412;-33.800;150.804;2022-07-23T10:12:10;4.93;;;3.05;;
57575;SDS011;43412;-33.800;150.804;2022-07-23T10:14:50;3.13;;;2.38;;
57575;SDS011;43412;-33.800;150.804;2022-07-23T10:17:18;2.05;;;1.35;;
57575;SDS011;43412;-33.800;150.804;2022-07-23T10:19:45;2.10;;;1.50;;
57575;SDS011;43412;-33.800;150.804;2022-07-23T10:22:14;5.35;;;2.00;;
57575;SDS011;43412;-33.800;150.804;2022-07-23T10:28:07;7.63;;;3.25;;
57575;SDS011;43412;-33.800;150.804;2022-07-23T10:36:55;8.43;;;4.45;;
57575;SDS011;43412;-33.800;150.804;2022-07-23T10:39:32;9.65;;;4.88;;
57575;SDS011;43412;-33.800;150.804;2022-07-23T10:42:10;8.05;;;4.97;;
57575;SDS011;43412;-33.800;150.804;2022-07-23T10:44:40;7.50;;;4.53;;
57575;SDS011;43412;-33.800;150.804;2022-07-23T10:47:20;5.85;;;3.65;;
57575;SDS011;43412;-33.800;150.804;2022-07-23T10:53:09;5.57;;;4.07;;
57575;SDS011;43412;-33.800;150.804;2022-07-23T10:55:51;6.03;;;4.13;;
57575;SDS011;43412;-33.800;150.804;2022-07-23T10:58:20;6.05;;;3.35;;
57575;SDS011;43412;-33.800;150.804;2022-07-23T11:00:49;4.82;;;3.53;;
57575;SDS011;43412;-33.800;150.804;2022-07-23T11:03:49;5.88;;;3.63;;
57575;SDS011;43412;-33.800;150.804;2022-07-23T11:06:21;4.47;;;3.53;;
57575;SDS011;43412;-33.800;150.804;2022-07-23T11:08:51;4.13;;;3.53;;
57575;SDS011;43412;-33.800;150.804;2022-07-23T11:17:26;5.35;;;2.22;;
57575;SDS011;43412;-33.800;150.804;2022-07-23T11:25:28;1.70;;;1.17;;
57575;SDS011;43412;-33.800;150.804;2022-07-23T11:28:16;2.35;;;0.98;;
57575;SDS011;43412;-33.800;150.804;2022-07-23T11:30:51;2.47;;;1.38;;
57575;SDS011;43412;-33.800;150.804;2022-07-23T11:33:19;2.95;;;1.30;;
57575;SDS011;43412;-33.800;150.804;2022-07-23T11:35:49;1.30;;;0.80;;
57575;SDS011;43412;-33.800;150.804;2022-07-23T11:38:27;1.58;;;1.00;;
57575;SDS011;43412;-33.800;150.804;2022-07-23T11:40:58;2.15;;;1.60;;
57575;SDS011;43412;-33.800;150.804;2022-07-23T11:43:26;2.40;;;1.45;;
57575;SDS011;43412;-33.800;150.804;2022-07-23T11:45:56;2.05;;;1.83;;
57575;SDS011;43412;-33.800;150.804;2022-07-23T11:48:26;2.67;;;1.95;;
57575;SDS011;43412;-33.800;150.804;2022-07-23T11:50:55;2.22;;;2.03;;
57575;SDS011;43412;-33.800;150.804;2022-07-23T11:53:24;3.50;;;1.67;;
57575;SDS011;43412;-33.800;150.804;2022-07-23T11:55:54;3.22;;;1.42;;
57575;SDS011;43412;-33.800;150.804;2022-07-23T11:58:29;3.28;;;1.55;;
57575;SDS011;43412;-33.800;150.804;2022-07-23T12:00:57;2.40;;;1.30;;
57575;SDS011;43412;-33.800;150.804;2022-07-23T12:03:24;2.53;;;1.83;;
57575;SDS011;43412;-33.800;150.804;2022-07-23T12:05:56;2.28;;;1.70;;
57575;SDS011;43412;-33.800;150.804;2022-07-23T12:08:25;3.53;;;1.88;;
57575;SDS011;43412;-33.800;150.804;2022-07-23T12:10:52;3.42;;;1.48;;
57575;SDS011;43412;-33.800;150.804;2022-07-23T12:13:20;3.63;;;1.58;;
57575;SDS011;43412;-33.800;150.804;2022-07-23T12:15:50;3.90;;;2.03;;
57575;SDS011;43412;-33.800;150.804;2022-07-23T12:18:20;3.97;;;1.80;;
57575;SDS011;43412;-33.800;150.804;2022-07-23T12:20:52;1.90;;;1.70;;
57575;SDS011;43412;-33.800;150.804;2022-07-23T12:23:24;2.25;;;1.60;;
57575;SDS011;43412;-33.800;150.804;2022-07-23T12:25:52;1.98;;;1.55;;
57575;SDS011;43412;-33.800;150.804;2022-07-23T12:28:30;3.70;;;1.55;;
57575;SDS011;43412;-33.800;150.804;2022-07-23T12:30:59;3.95;;;1.75;;
57575;SDS011;43412;-33.800;150.804;2022-07-23T12:33:28;4.18;;;2.55;;
57575;SDS011;43412;-33.800;150.804;2022-07-23T12:35:57;3.42;;;2.25;;
57575;SDS011;43412;-33.800;150.804;2022-07-23T12:38:27;3.53;;;1.98;;
57575;SDS011;43412;-33.800;150.804;2022-07-23T12:41:02;3.90;;;1.98;;
57575;SDS011;43412;-33.800;150.804;2022-07-23T12:43:31;10.20;;;6.43;;
57575;SDS011;43412;-33.800;150.804;2022-07-23T12:46:10;7.90;;;5.22;;
57575;SDS011;43412;-33.800;150.804;2022-07-23T12:51:18;3.17;;;2.63;;
57575;SDS011;43412;-33.800;150.804;2022-07-23T12:53:51;2.92;;;2.47;;
57575;SDS011;43412;-33.800;150.804;2022-07-23T12:56:30;8.95;;;7.68;;
57575;SDS011;43412;-33.800;150.804;2022-07-23T13:01:40;4.97;;;4.10;;
57575;SDS011;43412;-33.800;150.804;2022-07-23T13:06:56;11.40;;;6.93;;
57575;SDS011;43412;-33.800;150.804;2022-07-23T13:09:27;15.48;;;8.35;;
57575;SDS011;43412;-33.800;150.804;2022-07-23T13:11:56;14.35;;;8.25;;
57575;SDS011;43412;-33.800;150.804;2022-07-23T13:14:25;10.23;;;7.35;;
57575;SDS011;43412;-33.800;150.804;2022-07-23T13:16:54;9.93;;;6.43;;
57575;SDS011;43412;-33.800;150.804;2022-07-23T13:19:21;12.43;;;7.38;;
57575;SDS011;43412;-33.800;150.804;2022-07-23T13:21:49;10.07;;;6.90;;
57575;SDS011;43412;-33.800;150.804;2022-07-23T13:24:16;10.73;;;6.93;;
57575;SDS011;43412;-33.800;150.804;2022-07-23T13:26:44;12.20;;;7.07;;
57575;SDS011;43412;-33.800;150.804;2022-07-23T13:29:12;8.90;;;5.95;;
57575;SDS011;43412;-33.800;150.804;2022-07-23T13:31:40;6.97;;;4.72;;
57575;SDS011;43412;-33.800;150.804;2022-07-23T13:34:07;8.73;;;5.90;;
57575;SDS011;43412;-33.800;150.804;2022-07-23T13:36:35;9.80;;;5.82;;
57575;SDS011;43412;-33.800;150.804;2022-07-23T13:39:02;12.13;;;7.05;;
57575;SDS011;43412;-33.800;150.804;2022-07-23T13:41:30;11.00;;;7.43;;
57575;SDS011;43412;-33.800;150.804;2022-07-23T13:43:57;12.68;;;8.65;;
57575;SDS011;43412;-33.800;150.804;2022-07-23T13:46:25;11.88;;;8.45;;
57575;SDS011;43412;-33.800;150.804;2022-07-23T13:48:53;9.27;;;7.03;;
57575;SDS011;43412;-33.800;150.804;2022-07-23T13:51:20;9.93;;;4.95;;
57575;SDS011;43412;-33.800;150.804;2022-07-23T13:53:49;4.25;;;2.88;;
57575;SDS011;43412;-33.800;150.804;2022-07-23T13:56:17;2.08;;;1.77;;
57575;SDS011;43412;-33.800;150.804;2022-07-23T13:58:44;3.83;;;2.40;;
57575;SDS011;43412;-33.800;150.804;2022-07-23T14:01:12;2.58;;;2.15;;
57575;SDS011;43412;-33.800;150.804;2022-07-23T14:03:39;3.65;;;2.45;;
57575;SDS011;43412;-33.800;150.804;2022-07-23T14:06:07;3.90;;;2.42;;
57575;SDS011;43412;-33.800;150.804;2022-07-23T14:08:34;3.45;;;3.15;;
57575;SDS011;43412;-33.800;150.804;2022-07-23T14:11:01;5.95;;;3.60;;
57575;SDS011;43412;-33.800;150.804;2022-07-23T14:13:29;8.65;;;5.35;;
57575;SDS011;43412;-33.800;150.804;2022-07-23T14:15:57;8.93;;;5.47;;
57575;SDS011;43412;-33.800;150.804;2022-07-23T14:18:24;12.65;;;6.97;;
57575;SDS011;43412;-33.800;150.804;2022-07-23T14:20:51;9.55;;;6.10;;
57575;SDS011;43412;-33.800;150.804;2022-07-23T14:23:19;10.15;;;5.88;;
57575;SDS011;43412;-33.800;150.804;2022-07-23T14:25:46;7.53;;;5.00;;
57575;SDS011;43412;-33.800;150.804;2022-07-23T14:28:14;5.95;;;4.18;;
57575;SDS011;43412;-33.800;150.804;2022-07-23T14:30:41;6.15;;;4.45;;
57575;SDS011;43412;-33.800;150.804;2022-07-23T14:33:09;7.68;;;5.25;;
57575;SDS011;43412;-33.800;150.804;2022-07-23T14:35:38;9.35;;;5.25;;
57575;SDS011;43412;-33.800;150.804;2022-07-23T14:38:06;20.75;;;13.55;;
57575;SDS011;43412;-33.800;150.804;2022-07-23T14:40:33;26.27;;;14.75;;
57575;SDS011;43412;-33.800;150.804;2022-07-23T14:43:00;18.85;;;9.30;;
57575;SDS011;43412;-33.800;150.804;2022-07-23T14:45:28;8.15;;;5.30;;
57575;SDS011;43412;-33.800;150.804;2022-07-23T14:47:55;8.38;;;5.00;;
57575;SDS011;43412;-33.800;150.804;2022-07-23T14:50:24;7.47;;;4.50;;
57575;SDS011;43412;-33.800;150.804;2022-07-23T14:52:51;6.45;;;4.65;;
57575;SDS011;43412;-33.800;150.804;2022-07-23T14:55:19;5.40;;;3.85;;
57575;SDS011;43412;-33.800;150.804;2022-07-23T14:57:46;6.50;;;4.68;;
57575;SDS011;43412;-33.800;150.804;2022-07-23T15:00:14;8.65;;;5.55;;